createdAt,value
2019-05-01T00:02:17.464Z,20.03
2019-05-01T00:05:11.710Z,22.10
2019-05-01T00:07:40.944Z,25.90
2019-05-01T00:10:10.589Z,21.57
2019-05-01T00:12:39.699Z,24.37
2019-05-01T00:15:09.703Z,18.30
2019-05-01T00:17:38.891Z,17.77
2019-05-01T00:20:08.074Z,22.07
2019-05-01T00:22:37.132Z,20.30
2019-05-01T00:25:06.397Z,21.13
2019-05-01T00:27:35.542Z,18.63
2019-05-01T00:30:06.879Z,21.63
2019-05-01T00:32:35.868Z,25.80
2019-05-01T00:35:05.834Z,23.53
2019-05-01T00:37:34.926Z,24.50
2019-05-01T00:40:04.320Z,23.47
2019-05-01T00:42:33.351Z,22.63
2019-05-01T00:45:02.504Z,26.80
2019-05-01T00:47:31.533Z,23.70
2019-05-01T00:50:00.663Z,26.90
2019-05-01T00:52:29.851Z,22.47
2019-05-01T00:55:17.101Z,26.87
2019-05-01T00:57:54.410Z,32.63
2019-05-01T01:00:43.475Z,26.23
2019-05-01T01:03:12.761Z,27.87
2019-05-01T01:05:41.835Z,23.00
2019-05-01T01:08:11.460Z,24.97
2019-05-01T01:10:40.569Z,27.97
2019-05-01T01:13:09.723Z,27.17
2019-05-01T01:15:38.880Z,26.50
2019-05-01T01:18:08.028Z,33.83
2019-05-01T01:20:37.187Z,28.00
2019-05-01T01:23:06.383Z,27.80
2019-05-01T01:25:35.554Z,29.87
2019-05-01T01:28:04.747Z,30.60
2019-05-01T01:30:34.051Z,28.17
2019-05-01T01:33:03.263Z,22.43
2019-05-01T01:35:32.503Z,28.40
2019-05-01T01:38:01.848Z,30.53
2019-05-01T01:40:31.843Z,25.47
2019-05-01T01:43:20.151Z,28.10
2019-05-01T01:45:50.938Z,29.50
2019-05-01T01:48:20.109Z,23.07
2019-05-01T01:50:49.804Z,26.50
2019-05-01T01:53:21.775Z,29.93
2019-05-01T01:55:51.692Z,28.90
2019-05-01T01:58:22.000Z,24.90
2019-05-01T02:01:09.896Z,25.17
2019-05-01T02:03:41.967Z,24.80
2019-05-01T02:06:11.467Z,29.93
2019-05-01T02:08:40.951Z,25.07
2019-05-01T02:11:10.119Z,31.93
2019-05-01T02:13:39.884Z,28.83
2019-05-01T02:16:09.090Z,27.60
2019-05-01T02:18:38.292Z,35.93
2019-05-01T02:21:07.425Z,31.17
2019-05-01T02:23:36.547Z,35.30
2019-05-01T02:26:07.111Z,35.33
2019-05-01T02:28:43.188Z,42.87
2019-05-01T02:31:28.078Z,35.93
2019-05-01T02:33:53.181Z,35.73
2019-05-01T02:36:23.542Z,34.00
2019-05-01T02:38:54.662Z,32.60
2019-05-01T02:41:27.446Z,37.60
2019-05-01T02:44:01.361Z,39.63
2019-05-01T02:46:32.202Z,37.10
2019-05-01T02:49:08.070Z,49.60
2019-05-01T02:51:39.276Z,44.93
2019-05-01T02:54:10.354Z,54.57
2019-05-01T02:56:52.581Z,48.43
2019-05-01T02:59:23.262Z,59.43
2019-05-01T03:01:52.754Z,50.90
2019-05-01T03:04:22.347Z,54.73
2019-05-01T03:06:51.985Z,63.03
2019-05-01T03:09:21.809Z,61.33
2019-05-01T03:11:53.953Z,60.60
2019-05-01T03:14:26.031Z,68.03
2019-05-01T03:16:59.252Z,66.03
2019-05-01T03:19:53.536Z,81.90
2019-05-01T03:22:38.998Z,87.80
2019-05-01T03:25:08.715Z,115.37
2019-05-01T03:27:37.860Z,103.97
2019-05-01T03:30:07.165Z,93.80
2019-05-01T03:32:36.539Z,88.43
2019-05-01T03:35:05.968Z,80.10
2019-05-01T03:37:35.417Z,91.67
2019-05-01T03:40:04.553Z,96.83
2019-05-01T03:42:33.759Z,85.33
2019-05-01T03:45:02.997Z,86.97
2019-05-01T03:47:32.231Z,88.60
2019-05-01T03:50:02.081Z,92.93
2019-05-01T03:52:31.567Z,104.23
2019-05-01T03:55:01.043Z,104.77
2019-05-01T03:57:30.377Z,100.50
2019-05-01T03:59:59.636Z,135.13
2019-05-01T04:02:39.366Z,149.47
2019-05-01T04:05:08.563Z,160.17
2019-05-01T04:07:38.493Z,120.53
2019-05-01T04:10:08.321Z,122.57
2019-05-01T04:12:37.806Z,129.30
2019-05-01T04:15:07.329Z,121.70
2019-05-01T04:17:45.433Z,117.53
2019-05-01T04:20:15.301Z,115.30
2019-05-01T04:22:45.058Z,118.83
2019-05-01T04:25:14.265Z,120.83
2019-05-01T04:27:46.011Z,110.53
2019-05-01T04:30:30.386Z,116.43
2019-05-01T04:33:02.169Z,106.77
2019-05-01T04:35:49.008Z,123.90
2019-05-01T04:38:18.561Z,100.83
2019-05-01T04:40:47.987Z,105.73
2019-05-01T04:43:17.414Z,95.40
2019-05-01T04:45:46.789Z,91.47
2019-05-01T04:48:15.890Z,92.07
2019-05-01T04:50:45.108Z,92.37
2019-05-01T04:53:14.638Z,92.27
2019-05-01T04:55:43.875Z,97.30
2019-05-01T04:58:13.654Z,86.17
2019-05-01T05:00:43.236Z,98.53
2019-05-01T05:03:16.879Z,89.07
2019-05-01T05:05:46.421Z,97.53
2019-05-01T05:08:16.263Z,86.63
2019-05-01T05:10:46.236Z,89.77
2019-05-01T05:13:23.663Z,102.30
2019-05-01T05:16:01.494Z,91.03
2019-05-01T05:18:40.239Z,88.07
2019-05-01T05:21:09.819Z,95.63
2019-05-01T05:23:39.092Z,90.57
2019-05-01T05:26:08.287Z,87.53
2019-05-01T05:28:38.944Z,93.83
2019-05-01T05:31:08.839Z,92.10
2019-05-01T05:33:39.732Z,92.97
2019-05-01T05:36:10.083Z,101.60
2019-05-01T05:39:06.419Z,92.77
2019-05-01T05:41:36.648Z,93.83
2019-05-01T05:44:05.815Z,100.33
2019-05-01T05:46:35.043Z,96.47
2019-05-01T05:49:05.113Z,99.50
2019-05-01T05:51:42.906Z,112.77
2019-05-01T05:54:31.438Z,112.57
2019-05-01T05:57:07.069Z,110.77
2019-05-01T05:59:40.711Z,111.77
2019-05-01T06:02:28.456Z,120.03
2019-05-01T06:05:20.801Z,104.80
2019-05-01T06:08:10.815Z,106.23
2019-05-01T06:11:00.178Z,101.83
2019-05-01T06:13:47.795Z,107.80
2019-05-01T06:16:25.327Z,112.03
2019-05-01T06:19:09.760Z,112.57
2019-05-01T06:21:48.622Z,96.90
2019-05-01T06:24:28.520Z,95.83
2019-05-01T06:26:58.037Z,106.13
2019-05-01T06:29:30.937Z,107.00
2019-05-01T06:31:59.811Z,99.53
2019-05-01T06:34:29.820Z,106.20
2019-05-01T06:36:59.551Z,122.70
2019-05-01T06:39:28.816Z,127.87
2019-05-01T06:41:58.547Z,114.93
2019-05-01T06:44:52.318Z,176.80
2019-05-01T06:47:52.264Z,107.00
2019-05-01T06:50:37.162Z,93.27
2019-05-01T06:53:06.065Z,91.70
2019-05-01T06:55:38.089Z,89.40
2019-05-01T06:58:07.651Z,73.03
2019-05-01T07:00:39.141Z,76.00
2019-05-01T07:03:10.513Z,81.00
2019-05-01T07:05:40.941Z,82.77
2019-05-01T07:08:23.769Z,64.93
2019-05-01T07:10:43.939Z,69.57
2019-05-01T07:13:12.377Z,76.50
2019-05-01T07:15:41.571Z,64.67
2019-05-01T07:18:11.799Z,73.03
2019-05-01T07:20:53.278Z,74.13
2019-05-01T07:23:24.484Z,73.53
2019-05-01T07:25:54.414Z,64.83
2019-05-01T07:28:28.895Z,63.40
2019-05-01T07:31:04.814Z,61.50
2019-05-01T07:33:33.095Z,72.47
2019-05-01T07:36:07.562Z,68.83
2019-05-01T07:38:38.201Z,56.60
2019-05-01T07:41:05.667Z,64.73
2019-05-01T07:44:01.024Z,70.83
2019-05-01T07:46:54.388Z,53.57
2019-05-01T07:49:32.172Z,56.40
2019-05-01T07:52:01.804Z,62.83
2019-05-01T07:54:31.178Z,62.13
2019-05-01T07:57:03.283Z,55.33
2019-05-01T07:59:31.216Z,45.90
2019-05-01T08:02:03.179Z,58.57
2019-05-01T08:04:36.548Z,58.60
2019-05-01T08:07:03.540Z,46.27
2019-05-01T08:09:32.754Z,54.07
2019-05-01T08:12:02.036Z,57.50
2019-05-01T08:14:31.462Z,48.33
2019-05-01T08:17:02.740Z,56.90
2019-05-01T08:19:47.247Z,55.13
2019-05-01T08:22:21.865Z,50.33
2019-05-01T08:24:53.851Z,56.47
2019-05-01T08:27:40.987Z,56.00
2019-05-01T08:30:24.075Z,60.73
2019-05-01T08:33:16.074Z,49.63
2019-05-01T08:35:46.017Z,50.13
2019-05-01T08:38:16.266Z,55.10
2019-05-01T08:40:45.442Z,49.43
2019-05-01T08:43:17.994Z,42.10
2019-05-01T08:45:59.830Z,56.83
2019-05-01T08:48:46.586Z,47.93
2019-05-01T08:51:16.398Z,49.73
2019-05-01T08:53:45.620Z,39.70
2019-05-01T08:56:17.127Z,48.73
2019-05-01T08:58:51.454Z,51.50
2019-05-01T09:01:20.796Z,45.43
2019-05-01T09:03:54.168Z,44.57
2019-05-01T09:06:34.057Z,44.77
2019-05-01T09:08:51.992Z,43.27
2019-05-01T09:11:21.091Z,52.77
2019-05-01T09:13:50.312Z,53.30
2019-05-01T09:16:23.369Z,54.77
2019-05-01T09:18:53.278Z,54.27
2019-05-01T09:21:22.561Z,54.30
2019-05-01T09:23:53.247Z,51.50
2019-05-01T09:26:40.383Z,50.90
2019-05-01T09:29:16.000Z,50.37
2019-05-01T09:31:44.426Z,28.40
2019-05-01T09:34:13.938Z,49.33
2019-05-01T09:36:44.483Z,56.33
2019-05-01T09:39:15.298Z,48.27
2019-05-01T09:41:47.594Z,46.40
2019-05-01T09:44:17.456Z,52.43
2019-05-01T09:46:46.631Z,50.53
2019-05-01T09:49:18.197Z,42.57
2019-05-01T09:51:56.207Z,49.10
2019-05-01T09:54:46.789Z,48.33
2019-05-01T09:57:15.065Z,52.73
2019-05-01T09:59:44.448Z,56.17
2019-05-01T10:02:14.696Z,53.83
2019-05-01T10:04:43.829Z,61.83
2019-05-01T10:07:13.080Z,60.77
2019-05-01T10:09:47.263Z,56.03
2019-05-01T10:12:16.052Z,55.27
2019-05-01T10:14:45.397Z,63.83
2019-05-01T10:17:14.507Z,58.23
2019-05-01T10:19:43.891Z,64.63
2019-05-01T10:22:16.235Z,61.83
2019-05-01T10:24:45.455Z,50.80
2019-05-01T10:27:17.400Z,36.50
2019-05-01T10:30:04.435Z,47.80
2019-05-01T10:32:42.943Z,49.80
2019-05-01T10:35:41.907Z,61.50
2019-05-01T10:38:04.693Z,50.70
2019-05-01T10:40:33.982Z,41.70
2019-05-01T10:43:02.799Z,39.43
2019-05-01T10:45:31.993Z,45.90
2019-05-01T10:48:01.166Z,39.27
2019-05-01T10:50:31.334Z,45.13
2019-05-01T10:53:00.358Z,41.33
2019-05-01T10:55:29.567Z,47.03
2019-05-01T10:57:58.716Z,46.17
2019-05-01T11:00:28.042Z,47.37
2019-05-01T11:02:57.233Z,44.03
2019-05-01T11:05:26.815Z,21.23
2019-05-01T11:07:55.963Z,38.17
2019-05-01T11:10:25.041Z,29.37
2019-05-01T11:12:54.078Z,23.67
2019-05-01T11:15:23.263Z,32.13
2019-05-01T11:17:54.788Z,32.80
2019-05-01T11:20:23.958Z,52.43
2019-05-01T11:22:53.248Z,34.40
2019-05-01T11:25:23.123Z,35.87
2019-05-01T11:27:52.296Z,44.40
2019-05-01T11:30:21.595Z,39.00
2019-05-01T11:33:02.837Z,38.50
2019-05-01T11:35:52.869Z,37.93
2019-05-01T11:38:40.208Z,45.53
2019-05-01T11:41:22.445Z,33.07
2019-05-01T11:43:51.719Z,43.00
2019-05-01T11:46:20.922Z,40.83
2019-05-01T11:48:50.444Z,38.07
2019-05-01T11:51:20.635Z,39.33
2019-05-01T11:53:49.766Z,37.07
2019-05-01T11:56:19.034Z,33.30
2019-05-01T11:58:48.131Z,37.23
2019-05-01T12:01:18.952Z,37.73
2019-05-01T12:03:48.137Z,39.53
2019-05-01T12:06:22.986Z,39.97
2019-05-01T12:08:48.253Z,44.90
2019-05-01T12:11:19.163Z,41.33
2019-05-01T12:13:49.813Z,48.97
2019-05-01T12:16:44.368Z,45.43
2019-05-01T12:19:13.672Z,50.50
2019-05-01T12:21:42.921Z,58.87
2019-05-01T12:24:12.074Z,46.80
2019-05-01T12:26:42.201Z,55.20
2019-05-01T12:29:11.391Z,51.97
2019-05-01T12:31:40.661Z,54.43
2019-05-01T12:34:09.946Z,52.37
2019-05-01T12:36:40.267Z,65.70
2019-05-01T12:39:13.198Z,58.97
2019-05-01T12:41:48.198Z,47.50
2019-05-01T12:44:17.459Z,56.87
2019-05-01T12:46:52.991Z,55.23
2019-05-01T12:49:22.187Z,43.67
2019-05-01T12:51:54.071Z,46.93
2019-05-01T12:54:30.912Z,55.23
2019-05-01T12:57:00.161Z,48.20
2019-05-01T12:59:29.348Z,50.93
2019-05-01T13:01:58.364Z,55.77
2019-05-01T13:04:27.550Z,73.20
2019-05-01T13:06:58.809Z,60.07
2019-05-01T13:09:28.297Z,47.43
2019-05-01T13:11:57.745Z,56.37
2019-05-01T13:14:27.259Z,46.17
2019-05-01T13:16:56.433Z,59.93
2019-05-01T13:19:25.596Z,54.60
2019-05-01T13:21:54.904Z,54.53
2019-05-01T13:24:24.036Z,53.20
2019-05-01T13:27:08.059Z,53.90
2019-05-01T13:29:51.862Z,51.33
2019-05-01T13:32:38.948Z,45.67
2019-05-01T13:35:08.520Z,39.20
2019-05-01T13:37:38.117Z,39.53
2019-05-01T13:40:08.917Z,42.10
2019-05-01T13:42:38.344Z,36.07
2019-05-01T13:45:07.977Z,28.70
2019-05-01T13:47:37.138Z,24.47
2019-05-01T13:50:06.975Z,23.30
2019-05-01T13:52:36.067Z,32.10
2019-05-01T13:55:05.558Z,24.80
2019-05-01T13:57:34.792Z,33.93
2019-05-01T14:00:04.471Z,37.07
2019-05-01T14:02:33.647Z,35.57
2019-05-01T14:05:02.846Z,36.30
2019-05-01T14:07:32.003Z,38.00
2019-05-01T14:10:01.135Z,37.80
2019-05-01T14:12:30.337Z,45.33
2019-05-01T14:14:59.507Z,39.60
2019-05-01T14:17:28.659Z,38.83
2019-05-01T14:20:03.957Z,39.40
2019-05-01T14:23:01.027Z,45.07
2019-05-01T14:25:49.205Z,37.67
2019-05-01T14:28:18.319Z,38.20
2019-05-01T14:30:48.400Z,40.83
2019-05-01T14:33:17.435Z,40.57
2019-05-01T14:35:46.651Z,43.37
2019-05-01T14:38:16.861Z,41.33
2019-05-01T14:40:46.206Z,37.30
2019-05-01T14:43:15.415Z,41.70
2019-05-01T14:45:44.603Z,35.43
2019-05-01T14:48:13.800Z,43.77
2019-05-01T14:50:43.068Z,41.83
2019-05-01T14:53:12.476Z,36.53
2019-05-01T14:55:41.672Z,34.50
2019-05-01T14:58:10.739Z,44.63
2019-05-01T15:00:39.951Z,38.07
2019-05-01T15:03:09.136Z,47.10
2019-05-01T15:05:38.268Z,37.70
2019-05-01T15:08:07.539Z,35.00
2019-05-01T15:10:37.738Z,40.93
2019-05-01T15:13:14.922Z,40.23
2019-05-01T15:15:55.540Z,35.10
2019-05-01T15:18:43.702Z,33.47
2019-05-01T15:21:12.863Z,39.63
2019-05-01T15:23:53.099Z,40.53
2019-05-01T15:26:12.996Z,26.63
2019-05-01T15:28:42.103Z,31.23
2019-05-01T15:31:11.337Z,151.83
2019-05-01T15:33:40.409Z,29.30
2019-05-01T15:36:09.647Z,37.50
2019-05-01T15:38:46.642Z,32.80
2019-05-01T15:41:44.004Z,29.93
2019-05-01T15:44:25.459Z,31.33
2019-05-01T15:46:54.555Z,31.90
2019-05-01T15:49:23.664Z,34.77
2019-05-01T15:51:52.873Z,30.20
2019-05-01T15:54:22.035Z,23.70
2019-05-01T15:56:52.390Z,29.17
2019-05-01T15:59:21.482Z,31.40
2019-05-01T16:01:51.577Z,34.37
2019-05-01T16:04:20.611Z,28.37
2019-05-01T16:06:50.646Z,34.90
2019-05-01T16:09:21.950Z,30.13
2019-05-01T16:12:12.117Z,31.93
2019-05-01T16:14:42.468Z,29.03
2019-05-01T16:17:11.707Z,32.37
2019-05-01T16:19:44.016Z,34.33
2019-05-01T16:22:13.279Z,38.00
2019-05-01T16:24:42.459Z,34.53
2019-05-01T16:27:11.949Z,35.93
2019-05-01T16:29:41.847Z,34.13
2019-05-01T16:32:14.316Z,25.73
2019-05-01T16:34:48.033Z,34.33
2019-05-01T16:37:17.318Z,29.10
2019-05-01T16:40:05.140Z,38.60
2019-05-01T16:42:43.420Z,29.97
2019-05-01T16:45:13.987Z,23.40
2019-05-01T16:47:44.476Z,37.27
2019-05-01T16:50:14.996Z,37.17
2019-05-01T16:52:44.596Z,26.80
2019-05-01T16:55:14.080Z,36.47
2019-05-01T16:57:44.068Z,26.77
2019-05-01T17:00:15.633Z,37.63
2019-05-01T17:03:02.562Z,49.50
2019-05-01T17:05:56.230Z,90.57
2019-05-01T17:08:40.255Z,69.03
2019-05-01T17:11:10.568Z,38.43
2019-05-01T17:13:39.770Z,30.17
2019-05-01T17:16:09.037Z,25.77
2019-05-01T17:18:38.221Z,36.37
2019-05-01T17:21:07.486Z,37.50
2019-05-01T17:23:36.720Z,31.23
2019-05-01T17:26:05.892Z,27.57
2019-05-01T17:28:35.100Z,27.13
2019-05-01T17:31:05.552Z,29.40
2019-05-01T17:33:34.727Z,40.83
2019-05-01T17:36:03.968Z,48.43
2019-05-01T17:38:33.047Z,73.63
2019-05-01T17:41:02.414Z,39.40
2019-05-01T17:43:31.600Z,30.27
2019-05-01T17:46:00.812Z,35.80
2019-05-01T17:48:33.652Z,33.13
2019-05-01T17:51:01.947Z,39.30
2019-05-01T17:53:31.285Z,33.90
2019-05-01T17:56:00.476Z,44.53
2019-05-01T17:58:29.499Z,26.90
2019-05-01T18:01:27.567Z,47.97
2019-05-01T18:04:19.052Z,35.10
2019-05-01T18:06:49.928Z,53.43
2019-05-01T18:09:19.131Z,29.40
2019-05-01T18:11:52.320Z,33.80
2019-05-01T18:14:19.128Z,31.63
2019-05-01T18:16:48.315Z,27.87
2019-05-01T18:19:17.463Z,37.40
2019-05-01T18:21:51.691Z,38.73
2019-05-01T18:24:45.803Z,38.83
2019-05-01T18:27:32.846Z,41.97
2019-05-01T18:30:06.159Z,57.93
2019-05-01T18:32:41.511Z,38.63
2019-05-01T18:35:14.099Z,43.93
2019-05-01T18:37:47.763Z,38.37
2019-05-01T18:40:23.488Z,75.63
2019-05-01T18:42:52.650Z,74.90
2019-05-01T18:45:47.517Z,48.53
2019-05-01T18:48:17.160Z,35.80
2019-05-01T18:50:49.511Z,36.80
2019-05-01T18:53:17.419Z,31.33
2019-05-01T18:55:46.595Z,24.87
2019-05-01T18:58:15.812Z,25.23
2019-05-01T19:00:45.110Z,25.00
2019-05-01T19:03:14.211Z,26.10
2019-05-01T19:05:46.865Z,25.00
2019-05-01T19:08:14.203Z,25.80
2019-05-01T19:10:43.306Z,24.27
2019-05-01T19:13:13.382Z,36.87
2019-05-01T19:15:42.753Z,31.03
2019-05-01T19:18:11.934Z,25.90
2019-05-01T19:20:41.046Z,32.20
2019-05-01T19:23:10.916Z,27.47
2019-05-01T19:25:40.347Z,35.20
2019-05-01T19:28:09.549Z,35.70
2019-05-01T19:30:38.743Z,29.77
2019-05-01T19:33:07.942Z,31.40
2019-05-01T19:35:37.032Z,31.37
2019-05-01T19:38:06.412Z,31.67
2019-05-01T19:40:35.619Z,30.10
2019-05-01T19:43:04.763Z,29.97
2019-05-01T19:45:33.931Z,30.50
2019-05-01T19:48:03.089Z,33.33
2019-05-01T19:50:32.148Z,25.67
2019-05-01T19:53:01.295Z,30.80
2019-05-01T19:55:30.471Z,31.57
2019-05-01T19:57:59.684Z,41.03
2019-05-01T20:01:12.008Z,31.60
2019-05-01T20:03:41.246Z,31.73
2019-05-01T20:06:10.319Z,29.73
2019-05-01T20:08:39.463Z,33.20
2019-05-01T20:11:09.768Z,31.40
2019-05-01T20:13:39.050Z,29.93
2019-05-01T20:16:09.144Z,32.13
2019-05-01T20:18:38.309Z,27.17
2019-05-01T20:21:07.967Z,33.10
2019-05-01T20:23:37.052Z,34.33
2019-05-01T20:26:06.234Z,31.53
2019-05-01T20:28:37.214Z,37.20
2019-05-01T20:31:06.133Z,28.50
2019-05-01T20:33:38.658Z,36.47
2019-05-01T20:36:06.664Z,34.90
2019-05-01T20:38:35.855Z,35.73
2019-05-01T20:41:05.068Z,36.80
2019-05-01T20:43:38.119Z,30.37
2019-05-01T20:46:06.944Z,35.63
2019-05-01T20:48:35.899Z,29.70
2019-05-01T20:51:05.066Z,36.27
2019-05-01T20:53:34.120Z,36.53
2019-05-01T20:56:22.351Z,29.97
2019-05-01T20:58:51.491Z,34.43
2019-05-01T21:01:24.274Z,36.20
2019-05-01T21:04:25.524Z,35.13
2019-05-01T21:07:15.481Z,35.33
2019-05-01T21:09:47.863Z,37.33
2019-05-01T21:12:15.980Z,42.50
2019-05-01T21:14:49.392Z,32.93
2019-05-01T21:17:15.964Z,39.30
2019-05-01T21:19:44.987Z,34.93
2019-05-01T21:22:14.508Z,39.47
2019-05-01T21:24:44.338Z,31.70
2019-05-01T21:27:13.773Z,32.57
2019-05-01T21:29:44.518Z,37.50
2019-05-01T21:32:13.770Z,33.87
2019-05-01T21:34:43.509Z,35.20
2019-05-01T21:37:12.803Z,32.73
2019-05-01T21:39:43.675Z,44.27
2019-05-01T21:42:15.961Z,46.87
2019-05-01T21:44:43.843Z,37.63
2019-05-01T21:47:13.927Z,37.33
2019-05-01T21:49:43.262Z,32.90
2019-05-01T21:52:13.480Z,37.87
2019-05-01T21:54:42.951Z,38.73
2019-05-01T21:57:17.237Z,41.40
2019-05-01T21:59:44.838Z,34.60
2019-05-01T22:02:13.725Z,40.53
2019-05-01T22:04:42.873Z,37.17
2019-05-01T22:07:12.030Z,34.77
2019-05-01T22:09:45.518Z,41.57
2019-05-01T22:12:12.988Z,47.10
2019-05-01T22:14:55.738Z,46.40
2019-05-01T22:17:33.413Z,36.37
2019-05-01T22:20:02.882Z,38.23
2019-05-01T22:22:45.942Z,38.60
2019-05-01T22:25:25.150Z,44.20
2019-05-01T22:28:00.610Z,43.97
2019-05-01T22:30:42.275Z,37.17
2019-05-01T22:33:10.500Z,43.37
2019-05-01T22:35:43.256Z,41.07
2019-05-01T22:38:12.437Z,38.93
2019-05-01T22:41:06.994Z,53.87
2019-05-01T22:43:34.697Z,46.13
2019-05-01T22:46:05.022Z,44.47
2019-05-01T22:48:34.276Z,61.50
2019-05-01T22:51:10.415Z,40.23
2019-05-01T22:53:39.618Z,44.30
2019-05-01T22:56:08.707Z,47.53
2019-05-01T22:58:37.746Z,56.63
2019-05-01T23:01:07.136Z,52.37
2019-05-01T23:03:45.292Z,52.30
2019-05-01T23:06:14.607Z,48.17
2019-05-01T23:08:43.756Z,46.40
2019-05-01T23:11:19.637Z,47.90
2019-05-01T23:13:43.912Z,48.67
2019-05-01T23:16:13.450Z,47.70
2019-05-01T23:18:42.587Z,56.03
2019-05-01T23:21:14.647Z,51.57
2019-05-01T23:23:42.456Z,55.80
2019-05-01T23:26:16.018Z,49.07
2019-05-01T23:28:42.411Z,52.13
2019-05-01T23:31:11.773Z,49.07
2019-05-01T23:33:40.886Z,50.33
2019-05-01T23:36:22.365Z,58.97
2019-05-01T23:38:40.984Z,45.90
2019-05-01T23:41:10.115Z,51.97
2019-05-01T23:43:39.212Z,51.03
2019-05-01T23:46:08.424Z,51.20
2019-05-01T23:48:37.458Z,50.97
2019-05-01T23:51:06.535Z,50.73
2019-05-01T23:53:36.261Z,51.03
2019-05-01T23:56:05.410Z,57.40
2019-05-01T23:58:34.490Z,49.93
